Time;durP1;ratioP1;P1;durP2;ratioP2;P2;SDS_P1;SDS_P2;PMS_P1;PMS_P2;Temp;Humidity;BMP_temperature;BMP_pressure;BME280_temperature;BME280_humidity;BME280_pressure;Samples;Min_cycle;Max_cycle;Signal;HPM_P1;HPM_P2
2022/02/21 00:00:13;;;;;;;0.30;0.20;;;;;;;10.94;100.00;98643.34;5012170;28;20511;-51
2022/02/21 00:02:43;;;;;;;0.30;0.20;;;;;;;10.73;100.00;98619.78;5012154;28;20453;-51
2022/02/21 00:05:12;;;;;;;0.30;0.10;;;;;;;10.80;100.00;98622.00;5008701;28;20515;-52
2022/02/21 00:07:38;;;;;;;0.30;0.10;;;;;;;10.66;100.00;98598.00;5004171;28;20464;-51
2022/02/21 00:10:07;;;;;;;0.30;0.20;;;;;;;10.74;100.00;98602.88;5011874;28;20948;-51
2022/02/21 00:12:34;;;;;;;0.30;0.20;;;;;;;10.64;100.00;98595.44;5012552;28;20448;-52
2022/02/21 00:15:02;;;;;;;0.30;0.20;;;;;;;10.80;100.00;98600.72;5011817;28;20452;-52
2022/02/21 00:17:29;;;;;;;0.30;0.20;;;;;;;10.72;100.00;98581.72;5011849;28;20492;-51
2022/02/21 00:19:56;;;;;;;0.30;0.20;;;;;;;10.74;100.00;98584.28;5011974;28;20449;-52
2022/02/21 00:22:23;;;;;;;0.30;0.20;;;;;;;10.66;100.00;98582.06;5011957;28;20938;-51
2022/02/21 00:24:49;;;;;;;0.30;0.20;;;;;;;10.81;100.00;98569.69;5011869;28;20453;-51
2022/02/21 00:27:16;;;;;;;0.30;0.20;;;;;;;10.85;100.00;98571.25;5011773;28;20449;-52
2022/02/21 00:29:42;;;;;;;0.30;0.20;;;;;;;10.80;100.00;98555.53;5012144;28;21004;-52
2022/02/21 00:32:09;;;;;;;0.30;0.20;;;;;;;10.78;100.00;98560.09;5011807;28;20941;-52
2022/02/21 00:34:36;;;;;;;0.30;0.20;;;;;;;10.80;100.00;98555.53;5012016;28;20452;-51
2022/02/21 00:37:02;;;;;;;0.30;0.20;;;;;;;10.77;100.00;98560.19;5006326;28;20457;-52
2022/02/21 00:39:29;;;;;;;0.30;0.20;;;;;;;10.84;100.00;98546.47;5011759;28;20476;-51
2022/02/21 00:41:56;;;;;;;0.30;0.20;;;;;;;10.68;100.00;98533.19;5011630;28;20456;-51
2022/02/21 00:44:22;;;;;;;0.30;0.20;;;;;;;10.71;100.00;98528.66;5008767;28;20567;-51
2022/02/21 00:46:49;;;;;;;0.30;0.20;;;;;;;10.71;100.00;98524.19;4991257;28;20992;-51
2022/02/21 00:49:15;;;;;;;0.30;0.20;;;;;;;10.71;100.00;98513.56;5011897;28;20472;-52
2022/02/21 00:51:42;;;;;;;0.30;0.20;;;;;;;10.76;100.00;98513.31;5005852;28;20450;-52
2022/02/21 00:54:09;;;;;;;0.30;0.20;;;;;;;10.75;100.00;98500.97;5015261;28;20962;-51
2022/02/21 00:56:35;;;;;;;0.30;0.20;;;;;;;10.76;100.00;98502.66;5014895;28;20868;-52
2022/02/21 00:59:02;;;;;;;0.30;0.20;;;;;;;10.85;100.00;98494.16;5014893;28;21071;-51
2022/02/21 01:01:29;;;;;;;0.30;0.20;;;;;;;10.85;100.00;98492.38;5014078;28;20510;-51
2022/02/21 01:03:55;;;;;;;0.30;0.20;;;;;;;10.78;100.00;98491.00;5015058;28;20830;-51
2022/02/21 01:06:22;;;;;;;0.30;0.20;;;;;;;10.76;100.00;98486.72;5002502;28;20501;-51
2022/02/21 01:08:48;;;;;;;0.30;0.20;;;;;;;10.82;100.00;98483.69;5014735;28;20993;-51
2022/02/21 01:11:15;;;;;;;0.30;0.20;;;;;;;10.83;100.00;98502.25;5014693;28;20530;-51
2022/02/21 01:13:42;;;;;;;0.30;0.17;;;;;;;10.80;100.00;98498.88;5014991;28;20509;-51
2022/02/21 01:16:08;;;;;;;0.30;0.20;;;;;;;10.83;100.00;98541.25;5014849;28;20449;-51
2022/02/21 01:18:35;;;;;;;0.30;0.20;;;;;;;10.71;100.00;98566.72;5014499;28;20520;-51
2022/02/21 01:21:02;;;;;;;0.40;0.40;;;;;;;10.69;100.00;98651.00;5014539;28;20503;-52
2022/02/21 01:23:29;;;;;;;0.30;0.20;;;;;;;9.70;100.00;98720.78;5014651;28;20518;-51
2022/02/21 01:25:56;;;;;;;0.30;0.20;;;;;;;7.68;100.00;98749.53;5013228;28;20830;-51
2022/02/21 01:28:22;;;;;;;0.30;0.20;;;;;;;7.20;100.00;98726.81;5014642;28;20464;-52
2022/02/21 01:30:49;;;;;;;0.40;0.40;;;;;;;7.32;100.00;98728.97;5014350;28;20879;-52
2022/02/21 01:33:16;;;;;;;0.30;0.20;;;;;;;7.18;100.00;98723.38;5014436;28;20448;-52
2022/02/21 01:35:42;;;;;;;0.30;0.20;;;;;;;7.22;100.00;98706.47;5008364;28;20453;-52
2022/02/21 01:38:09;;;;;;;0.30;0.20;;;;;;;7.30;100.00;98692.97;5013976;28;20500;-52
2022/02/21 01:40:36;;;;;;;0.30;0.17;;;;;;;7.53;100.00;98655.84;5014510;28;20515;-52
2022/02/21 01:43:02;;;;;;;0.30;0.20;;;;;;;7.77;100.00;98653.94;5014369;28;20453;-52
2022/02/21 01:45:29;;;;;;;0.30;0.20;;;;;;;7.85;100.00;98672.97;5002106;28;20520;-52
2022/02/21 01:47:55;;;;;;;0.30;0.20;;;;;;;8.12;100.00;98685.94;5004026;28;20480;-51
2022/02/21 01:50:22;;;;;;;0.30;0.20;;;;;;;8.18;100.00;98677.69;5014129;28;20515;-52
2022/02/21 01:52:49;;;;;;;0.30;0.20;;;;;;;8.16;100.00;98669.81;5007103;28;20507;-52
2022/02/21 01:55:16;;;;;;;0.30;0.20;;;;;;;8.29;100.00;98670.13;5014111;28;20460;-52
2022/02/21 01:57:44;;;;;;;0.30;0.20;;;;;;;8.36;100.00;98668.97;5013877;28;20493;-52
2022/02/21 02:00:12;;;;;;;0.30;0.20;;;;;;;8.36;100.00;98689.25;5014038;28;20456;-51
2022/02/21 02:02:43;;;;;;;0.30;0.20;;;;;;;8.36;100.00;98683.97;5013699;28;20504;-51
2022/02/21 02:05:10;;;;;;;0.30;0.20;;;;;;;8.39;100.00;98666.19;5010311;28;20450;-51
2022/02/21 02:07:37;;;;;;;0.30;0.13;;;;;;;8.42;100.00;98673.97;5004742;28;20469;-51
2022/02/21 02:10:04;;;;;;;0.30;0.20;;;;;;;8.54;100.00;98670.75;5013878;28;20448;-51
2022/02/21 02:12:30;;;;;;;0.30;0.17;;;;;;;8.64;100.00;98673.84;5013962;28;20452;-52
2022/02/21 02:14:57;;;;;;;0.30;0.10;;;;;;;8.70;100.00;98680.66;5013635;28;20453;-51
2022/02/21 02:17:24;;;;;;;0.30;0.17;;;;;;;8.73;100.00;98677.84;5013607;28;20452;-52
2022/02/21 02:19:50;;;;;;;0.30;0.20;;;;;;;8.65;100.00;98677.34;5013449;28;20449;-52
2022/02/21 02:22:18;;;;;;;0.30;0.20;;;;;;;8.67;100.00;98680.78;5013829;28;20453;-52
2022/02/21 02:24:50;;;;;;;0.30;0.10;;;;;;;8.74;100.00;98676.91;5013951;28;20955;-52
2022/02/21 02:27:18;;;;;;;0.30;0.20;;;;;;;8.75;99.19;98674.19;5013699;28;20499;-51
2022/02/21 02:29:48;;;;;;;0.30;0.13;;;;;;;8.76;100.00;98664.44;5013408;28;20449;-52
2022/02/21 02:32:15;;;;;;;0.30;0.10;;;;;;;8.63;98.67;98676.53;5013451;28;20453;-52
2022/02/21 02:34:44;;;;;;;0.47;0.47;;;;;;;8.64;99.72;98678.28;5013551;28;20453;-52
2022/02/21 02:37:12;;;;;;;0.30;0.20;;;;;;;8.65;98.55;98664.13;5000736;28;20503;-52
2022/02/21 02:39:39;;;;;;;0.30;0.17;;;;;;;8.76;97.02;98654.72;5013187;28;20893;-51
2022/02/21 02:42:07;;;;;;;0.30;0.20;;;;;;;8.73;95.95;98691.94;5013162;28;20484;-52
2022/02/21 02:44:34;;;;;;;0.30;0.10;;;;;;;8.75;94.12;98707.75;5008364;28;20450;-52
2022/02/21 02:47:05;;;;;;;0.30;0.20;;;;;;;8.73;90.50;98691.09;4995227;28;20576;-51
2022/02/21 02:49:32;;;;;;;0.30;0.20;;;;;;;8.68;92.29;98682.50;5013116;28;20472;-51
2022/02/21 02:51:58;;;;;;;0.30;0.20;;;;;;;8.72;92.34;98705.25;5006470;28;20513;-52
2022/02/21 02:54:25;;;;;;;0.30;0.10;;;;;;;8.60;89.99;98699.59;5013195;28;20448;-51
2022/02/21 02:56:52;;;;;;;0.30;0.20;;;;;;;8.71;89.71;98717.66;5012951;28;20452;-52
2022/02/21 02:59:19;;;;;;;0.30;0.20;;;;;;;8.58;88.00;98743.84;5012800;28;20496;-52
2022/02/21 03:01:45;;;;;;;0.30;0.20;;;;;;;8.58;88.42;98737.69;5011694;28;20456;-51
2022/02/21 03:04:12;;;;;;;0.30;0.20;;;;;;;8.69;86.36;98739.84;5013069;28;20449;-51
2022/02/21 03:06:38;;;;;;;0.30;0.20;;;;;;;8.59;84.23;98772.03;5000166;28;20503;-51
2022/02/21 03:09:05;;;;;;;0.30;0.20;;;;;;;8.60;82.09;98768.47;5012876;28;20464;-51
2022/02/21 03:11:32;;;;;;;0.27;0.20;;;;;;;8.49;82.88;98757.47;5012712;28;20452;-51
2022/02/21 03:13:59;;;;;;;0.30;0.20;;;;;;;8.53;83.90;98751.16;5012314;28;20475;-52
2022/02/21 03:16:26;;;;;;;0.30;0.20;;;;;;;8.44;82.63;98738.31;5011419;28;20475;-51
2022/02/21 03:18:53;;;;;;;0.30;0.20;;;;;;;8.53;83.09;98740.56;5012731;28;20935;-51
2022/02/21 03:21:20;;;;;;;0.30;0.17;;;;;;;8.59;83.36;98744.69;5012595;28;20523;-51
2022/02/21 03:23:47;;;;;;;0.30;0.10;;;;;;;8.44;81.03;98755.97;5011501;28;20480;-52
2022/02/21 03:26:14;;;;;;;0.30;0.20;;;;;;;8.58;83.27;98782.69;5012492;28;20460;-51
2022/02/21 03:28:41;;;;;;;0.30;0.20;;;;;;;8.45;82.24;98802.72;5012383;28;20496;-51
2022/02/21 03:31:08;;;;;;;0.30;0.20;;;;;;;8.44;83.42;98828.31;5012472;28;20492;-51
2022/02/21 03:33:35;;;;;;;0.30;0.20;;;;;;;8.22;86.06;98815.16;5012567;28;20448;-52
2022/02/21 03:36:02;;;;;;;0.30;0.10;;;;;;;8.12;83.75;98807.66;5006031;28;20531;-51
2022/02/21 03:38:28;;;;;;;0.30;0.20;;;;;;;8.08;84.51;98798.97;5012167;28;20539;-51
2022/02/21 03:40:55;;;;;;;0.30;0.13;;;;;;;7.92;85.75;98797.91;4999741;28;20977;-51
2022/02/21 03:43:21;;;;;;;0.30;0.20;;;;;;;7.88;84.78;98804.25;5001567;28;20453;-51
2022/02/21 03:45:48;;;;;;;0.30;0.20;;;;;;;7.84;84.96;98819.41;4997535;28;20474;-52
2022/02/21 03:48:16;;;;;;;0.30;0.20;;;;;;;7.78;86.27;98829.34;5004547;28;20838;-51
2022/02/21 03:50:43;;;;;;;0.30;0.20;;;;;;;7.56;85.37;98829.38;5012265;28;20463;-51
2022/02/21 03:53:10;;;;;;;0.30;0.10;;;;;;;7.58;85.12;98825.75;5004236;28;20487;-51
2022/02/21 03:55:37;;;;;;;0.30;0.10;;;;;;;7.56;84.36;98838.16;5012048;28;20448;-51
2022/02/21 03:58:04;;;;;;;0.30;0.10;;;;;;;7.52;82.93;98835.69;5012108;28;20468;-51
2022/02/21 04:00:31;;;;;;;0.30;0.20;;;;;;;7.48;85.12;98827.03;5012087;28;20877;-52
2022/02/21 04:02:58;;;;;;;0.30;0.10;;;;;;;7.20;84.52;98829.88;5012293;28;20482;-52
2022/02/21 04:05:25;;;;;;;0.27;0.17;;;;;;;7.35;84.96;98836.34;5012220;28;20893;-51
2022/02/21 04:07:52;;;;;;;0.30;0.10;;;;;;;7.17;85.28;98845.00;5012325;28;20477;-52
2022/02/21 04:10:18;;;;;;;0.30;0.20;;;;;;;7.34;83.74;98842.56;5012043;28;20499;-52
2022/02/21 04:12:45;;;;;;;0.20;0.10;;;;;;;7.22;84.58;98862.38;5012425;28;20502;-52
2022/02/21 04:15:13;;;;;;;0.30;0.20;;;;;;;7.19;85.20;98878.38;5012239;28;20457;-52
2022/02/21 04:17:51;;;;;;;0.30;0.10;;;;;;;7.15;85.47;98884.69;5012236;28;20902;-52
2022/02/21 04:20:21;;;;;;;0.20;0.20;;;;;;;7.07;86.97;98877.03;5012143;28;20491;-52
2022/02/21 04:22:48;;;;;;;0.30;0.20;;;;;;;7.01;86.97;98885.22;5011919;28;20452;-51
2022/02/21 04:25:15;;;;;;;0.30;0.20;;;;;;;7.01;87.50;98903.69;5012321;28;20511;-52
2022/02/21 04:27:44;;;;;;;0.30;0.20;;;;;;;6.82;86.53;98902.63;5015873;28;20469;-52
2022/02/21 04:30:12;;;;;;;0.30;0.10;;;;;;;6.82;86.57;98902.63;5015783;28;20502;-52
2022/02/21 04:32:40;;;;;;;0.30;0.10;;;;;;;6.73;87.06;98909.09;5015450;28;20491;-52
2022/02/21 04:35:07;;;;;;;0.30;0.17;;;;;;;6.65;88.16;98897.09;5012421;28;20518;-52
2022/02/21 04:37:36;;;;;;;0.30;0.10;;;;;;;6.77;86.63;98913.34;5012170;28;20534;-52
2022/02/21 04:40:04;;;;;;;0.30;0.20;;;;;;;6.82;85.91;98919.31;5047442;22;20495;-49
2022/02/21 04:42:32;;;;;;;0.30;0.20;;;;;;;6.68;84.41;98913.66;5018788;28;20515;-49
2022/02/21 04:44:58;;;;;;;0.30;0.20;;;;;;;6.83;85.83;98921.03;5027649;28;20451;-49
2022/02/21 04:47:25;;;;;;;0.20;0.20;;;;;;;6.77;85.36;98929.19;5044049;28;20441;-49
2022/02/21 04:49:52;;;;;;;0.30;0.20;;;;;;;6.78;82.95;98935.34;5027815;28;20495;-49
2022/02/21 04:52:18;;;;;;;0.20;0.10;;;;;;;6.82;82.28;98940.44;5029310;28;20447;-49
2022/02/21 04:54:45;;;;;;;0.30;0.20;;;;;;;6.87;82.21;98940.31;5024100;28;20547;-49
2022/02/21 04:57:12;;;;;;;0.30;0.20;;;;;;;6.71;81.49;98939.09;5015893;28;20448;-49
2022/02/21 04:59:38;;;;;;;0.30;0.10;;;;;;;6.72;83.11;98959.34;5028024;28;20568;-49
2022/02/21 05:02:05;;;;;;;0.30;0.20;;;;;;;6.78;83.07;98946.75;5017196;28;20476;-49
2022/02/21 05:04:32;;;;;;;0.20;0.10;;;;;;;6.74;81.66;98946.94;5028131;28;20987;-49
2022/02/21 05:06:58;;;;;;;0.30;0.17;;;;;;;6.65;80.04;98939.31;5035223;28;20455;-49
2022/02/21 05:09:25;;;;;;;0.40;0.40;;;;;;;6.60;81.73;98936.84;5023625;28;20469;-49
2022/02/21 05:11:51;;;;;;;0.30;0.20;;;;;;;6.60;82.10;98949.19;5021274;28;20478;-49
2022/02/21 05:14:18;;;;;;;0.20;0.10;;;;;;;6.63;81.18;98941.16;5023484;28;20452;-49
2022/02/21 05:16:45;;;;;;;0.30;0.20;;;;;;;6.52;80.06;98938.88;5021387;28;20452;-49
2022/02/21 05:19:12;;;;;;;0.30;0.20;;;;;;;6.56;79.51;98948.41;5022591;28;20500;-49
2022/02/21 05:21:39;;;;;;;0.30;0.20;;;;;;;6.40;79.93;98947.19;5021392;28;20998;-49
2022/02/21 05:24:06;;;;;;;0.30;0.20;;;;;;;6.48;79.86;98953.09;5022967;28;20522;-49
2022/02/21 05:26:33;;;;;;;0.30;0.10;;;;;;;6.39;80.14;98954.25;5021596;28;20483;-49
2022/02/21 05:29:00;;;;;;;0.30;0.10;;;;;;;6.28;79.33;98950.25;5022665;28;20507;-49
2022/02/21 05:31:26;;;;;;;0.20;0.10;;;;;;;6.35;79.27;98964.97;5028658;28;20452;-49
2022/02/21 05:33:53;;;;;;;0.20;0.10;;;;;;;6.35;78.39;98959.69;5015415;28;20479;-49
2022/02/21 05:36:20;;;;;;;0.30;0.20;;;;;;;6.30;80.04;98953.69;5034874;28;20452;-48
2022/02/21 05:38:47;;;;;;;0.30;0.20;;;;;;;6.33;79.82;98956.25;5021096;28;20496;-48
2022/02/21 05:41:14;;;;;;;0.20;0.20;;;;;;;6.23;78.96;98971.50;5021179;28;20961;-48
2022/02/21 05:43:40;;;;;;;0.30;0.20;;;;;;;6.24;79.26;98957.41;5021878;28;20546;-48
2022/02/21 05:46:07;;;;;;;0.30;0.10;;;;;;;6.33;79.18;98972.94;5042636;28;20493;-48
2022/02/21 05:48:33;;;;;;;0.20;0.20;;;;;;;6.40;79.66;98977.09;5026719;28;20543;-48
2022/02/21 05:51:00;;;;;;;0.30;0.20;;;;;;;6.31;79.44;98981.84;5027917;28;20453;-48
2022/02/21 05:53:27;;;;;;;0.30;0.20;;;;;;;6.31;79.42;98981.84;5032895;28;21011;-48
2022/02/21 05:55:53;;;;;;;0.20;0.10;;;;;;;6.33;80.04;98966.81;5014691;28;20830;-48
2022/02/21 05:58:20;;;;;;;0.20;0.10;;;;;;;6.30;79.26;98977.44;5027975;28;20495;-48
2022/02/21 06:00:48;;;;;;;0.20;0.20;;;;;;;6.23;79.97;98972.38;5013467;28;20539;-48
2022/02/21 06:03:16;;;;;;;0.20;0.20;;;;;;;6.29;79.45;98967.81;5028453;28;20452;-48
2022/02/21 06:05:46;;;;;;;0.20;0.10;;;;;;;6.36;79.41;98977.25;5022792;28;20451;-48
2022/02/21 06:08:13;;;;;;;0.30;0.20;;;;;;;6.26;79.59;98971.41;5031565;28;20529;-49
2022/02/21 06:10:40;;;;;;;0.20;0.10;;;;;;;6.26;79.40;98966.13;5014206;28;20499;-48
2022/02/21 06:13:06;;;;;;;0.20;0.10;;;;;;;6.27;80.58;98959.94;5027355;28;20862;-48
2022/02/21 06:15:33;;;;;;;0.30;0.10;;;;;;;6.29;79.52;98981.84;5014350;28;20476;-48
2022/02/21 06:18:00;;;;;;;0.30;0.20;;;;;;;6.31;80.03;98980.06;5027419;28;20452;-49
2022/02/21 06:20:27;;;;;;;0.20;0.10;;;;;;;6.27;79.25;98991.59;5013905;28;20493;-48
2022/02/21 06:22:55;;;;;;;0.30;0.17;;;;;;;6.24;79.62;98989.06;5027337;28;20503;-48
2022/02/21 06:25:22;;;;;;;0.20;0.10;;;;;;;6.35;80.90;98986.94;5013993;28;20452;-48
2022/02/21 06:27:49;;;;;;;0.20;0.20;;;;;;;6.33;79.64;98995.84;5026997;28;20449;-48
2022/02/21 06:30:15;;;;;;;0.20;0.10;;;;;;;6.20;81.00;99006.78;5014137;28;20526;-48
2022/02/21 06:32:42;;;;;;;0.30;0.10;;;;;;;6.44;81.28;99022.72;5031083;28;20529;-48
2022/02/21 06:35:10;;;;;;;0.30;0.20;;;;;;;6.34;80.59;99026.59;5026009;28;20455;-48
2022/02/21 06:37:47;;;;;;;0.20;0.10;;;;;;;6.53;81.35;99022.44;5028945;28;20464;-48
2022/02/21 06:40:14;;;;;;;0.30;0.20;;;;;;;6.44;81.29;99015.69;5013319;28;20996;-49
2022/02/21 06:42:41;;;;;;;0.30;0.20;;;;;;;6.31;81.40;99017.00;5026633;28;20451;-49
2022/02/21 06:45:08;;;;;;;0.20;0.10;;;;;;;6.41;81.48;99026.31;5023076;28;20455;-48
2022/02/21 06:47:35;;;;;;;0.20;0.20;;;;;;;6.66;80.80;99039.59;5019901;28;20992;-48
2022/02/21 06:50:04;;;;;;;0.20;0.10;;;;;;;6.53;81.42;99036.50;5018663;28;20472;-49
2022/02/21 06:52:31;;;;;;;0.20;0.20;;;;;;;6.70;79.99;99043.84;5026815;28;20447;-49
2022/02/21 06:54:58;;;;;;;0.20;0.10;;;;;;;6.67;80.61;99043.09;5019100;28;20492;-48
2022/02/21 06:57:26;;;;;;;0.20;0.17;;;;;;;6.61;79.31;99045.94;5020487;28;20484;-49
2022/02/21 06:59:53;;;;;;;0.20;0.10;;;;;;;6.91;79.94;99046.72;5018561;28;20552;-49
2022/02/21 07:02:21;;;;;;;0.20;0.10;;;;;;;6.95;79.82;99049.19;5021322;28;20835;-48
2022/02/21 07:04:48;;;;;;;0.20;0.10;;;;;;;7.08;79.84;99057.56;5018209;28;20456;-49
2022/02/21 07:07:15;;;;;;;0.20;0.10;;;;;;;7.01;79.43;99067.47;5032554;28;20474;-49
2022/02/21 07:09:42;;;;;;;0.23;0.20;;;;;;;6.97;78.61;99067.63;5017365;28;20504;-49
2022/02/21 07:12:08;;;;;;;0.20;0.10;;;;;;;6.97;80.29;99072.91;5021686;28;20452;-49
2022/02/21 07:14:35;;;;;;;0.20;0.10;;;;;;;6.98;80.05;99070.19;5017313;28;20502;-49
2022/02/21 07:17:02;;;;;;;0.20;0.20;;;;;;;6.90;79.51;99090.75;5021415;28;20483;-49
2022/02/21 07:19:28;;;;;;;0.30;0.10;;;;;;;7.09;80.19;99102.41;5017099;28;20852;-49
2022/02/21 07:21:55;;;;;;;0.20;0.20;;;;;;;6.88;81.18;99111.06;5021496;28;20894;-49
2022/02/21 07:24:22;;;;;;;0.30;0.20;;;;;;;6.82;84.96;99113.91;5017134;28;20448;-49
2022/02/21 07:26:49;;;;;;;0.20;0.20;;;;;;;6.33;89.57;99148.88;5022016;28;20452;-49
2022/02/21 07:29:16;;;;;;;0.80;0.80;;;;;;;5.84;95.53;99137.06;5017397;28;20511;-49
2022/02/21 07:31:43;;;;;;;0.20;0.10;;;;;;;5.55;98.60;99133.47;5022200;28;20494;-49
2022/02/21 07:34:09;;;;;;;0.20;0.10;;;;;;;5.48;100.00;99137.19;5016947;28;20502;-49
2022/02/21 07:36:36;;;;;;;0.30;0.10;;;;;;;5.40;100.00;99136.50;5027908;28;20448;-49
2022/02/21 07:39:03;;;;;;;0.20;0.10;;;;;;;5.29;100.00;99149.97;5016400;28;21046;-49
2022/02/21 07:41:29;;;;;;;0.20;0.10;;;;;;;5.46;100.00;99152.16;5022653;28;20826;-49
2022/02/21 07:43:56;;;;;;;0.30;0.20;;;;;;;5.51;100.00;99154.69;5016284;28;20449;-49
2022/02/21 07:46:24;;;;;;;0.20;0.10;;;;;;;5.71;100.00;99162.03;5042646;28;20454;-49
2022/02/21 07:48:50;;;;;;;0.20;0.10;;;;;;;5.60;100.00;99157.06;5021893;28;20499;-49
2022/02/21 07:51:17;;;;;;;0.30;0.20;;;;;;;5.65;100.00;99153.41;5025620;28;20459;-49
2022/02/21 07:53:44;;;;;;;0.20;0.10;;;;;;;5.64;100.00;99156.94;5028514;28;20965;-49
2022/02/21 07:56:10;;;;;;;0.20;0.10;;;;;;;5.79;100.00;99147.75;5023270;28;20509;-49
2022/02/21 07:58:37;;;;;;;0.20;0.10;;;;;;;6.01;100.00;99133.97;5018938;28;20499;-49
2022/02/21 08:01:03;;;;;;;0.20;0.20;;;;;;;5.95;100.00;99150.84;5022856;28;20551;-49
2022/02/21 08:03:30;;;;;;;0.20;0.10;;;;;;;5.90;100.00;99150.13;5021213;28;20823;-49
2022/02/21 08:05:57;;;;;;;0.20;0.10;;;;;;;5.83;100.00;99153.81;5035332;28;20448;-49
2022/02/21 08:08:25;;;;;;;0.20;0.10;;;;;;;5.87;100.00;99158.06;5036142;28;20517;-49
2022/02/21 08:10:51;;;;;;;5.83;1.80;;;;;;;6.11;100.00;99173.25;5025237;28;20445;-49
2022/02/21 08:13:18;;;;;;;0.20;0.10;;;;;;;6.36;100.00;99162.84;5020755;28;20573;-49
2022/02/21 08:15:44;;;;;;;0.20;0.10;;;;;;;6.02;100.00;99159.44;5024558;28;20452;-49
2022/02/21 08:18:11;;;;;;;0.30;0.20;;;;;;;6.13;99.80;99165.28;5020998;28;20464;-49
2022/02/21 08:20:38;;;;;;;0.20;0.10;;;;;;;6.25;98.39;99159.66;5024498;28;20493;-49
2022/02/21 08:23:04;;;;;;;0.20;0.20;;;;;;;6.15;97.06;99148.50;5020870;28;21002;-49
2022/02/21 08:25:31;;;;;;;0.20;0.10;;;;;;;6.43;96.85;99139.75;5024531;28;20488;-49
2022/02/21 08:27:58;;;;;;;0.30;0.10;;;;;;;6.42;94.61;99145.94;5021049;28;20451;-49
2022/02/21 08:30:25;;;;;;;0.20;0.10;;;;;;;6.62;91.41;99137.44;5024106;28;20819;-49
2022/02/21 08:32:52;;;;;;;0.20;0.13;;;;;;;6.81;89.84;99142.09;5020809;28;20451;-49
2022/02/21 08:35:19;;;;;;;0.20;0.10;;;;;;;6.92;88.91;99152.31;5028486;28;20452;-49
2022/02/21 08:37:47;;;;;;;0.20;0.10;;;;;;;6.84;86.32;99141.13;5030422;28;20819;-49
2022/02/21 08:40:17;;;;;;;0.20;0.10;;;;;;;6.92;85.21;99148.81;5015751;28;20555;-49
2022/02/21 08:42:44;;;;;;;0.20;0.10;;;;;;;7.24;85.30;99150.38;5029066;28;20870;-49
2022/02/21 08:45:12;;;;;;;0.20;0.10;;;;;;;7.21;83.64;99148.72;5025559;28;20451;-49
2022/02/21 08:47:39;;;;;;;0.30;0.20;;;;;;;7.23;83.15;99159.22;5041829;28;20507;-49
2022/02/21 08:50:10;;;;;;;0.30;0.20;;;;;;;7.20;82.15;99152.28;5028948;28;20522;-49
2022/02/21 08:52:40;;;;;;;0.20;0.10;;;;;;;7.39;82.80;99152.50;5030176;28;20470;-49
2022/02/21 08:55:15;;;;;;;0.20;0.10;;;;;;;7.72;82.82;99147.84;5019713;28;20440;-49
2022/02/21 08:57:43;;;;;;;0.20;0.10;;;;;;;7.72;83.78;99150.50;5025268;28;20443;-49
2022/02/21 09:00:11;;;;;;;0.30;0.20;;;;;;;7.59;83.61;99158.00;5017934;28;20992;-49
2022/02/21 09:02:38;;;;;;;0.60;0.60;;;;;;;7.76;82.57;99162.69;5025793;28;20448;-49
2022/02/21 09:05:25;;;;;;;0.30;0.20;;;;;;;7.67;81.81;99160.34;5022209;28;20444;-49
2022/02/21 09:07:52;;;;;;;0.30;0.20;;;;;;;7.63;82.32;99164.88;5034363;28;20451;-49
2022/02/21 09:10:19;;;;;;;0.20;0.10;;;;;;;7.66;81.46;99166.56;5015106;28;20835;-49
2022/02/21 09:12:45;;;;;;;0.20;0.20;;;;;;;7.69;80.01;99167.34;5027505;28;20451;-49
2022/02/21 09:15:12;;;;;;;0.30;0.20;;;;;;;7.79;79.92;99159.06;5015264;28;20975;-49
2022/02/21 09:17:39;;;;;;;0.30;0.20;;;;;;;7.97;78.19;99143.41;5028330;28;20517;-49
2022/02/21 09:20:06;;;;;;;0.23;0.10;;;;;;;7.70;77.53;99168.19;5015069;28;20489;-49
2022/02/21 09:22:32;;;;;;;0.93;0.73;;;;;;;7.82;77.32;99153.69;5028480;28;20451;-49
2022/02/21 09:24:59;;;;;;;0.30;0.10;;;;;;;7.90;78.63;99141.88;5015467;28;20471;-49
2022/02/21 09:27:25;;;;;;;0.30;0.20;;;;;;;7.94;76.68;99140.84;5028578;28;20879;-49
2022/02/21 09:29:52;;;;;;;0.33;0.33;;;;;;;8.27;75.78;99143.19;5015074;28;20894;-50
2022/02/21 09:32:18;;;;;;;0.30;0.20;;;;;;;8.32;76.83;99141.22;5028228;28;20865;-49
2022/02/21 09:34:45;;;;;;;0.30;0.20;;;;;;;8.40;76.00;99140.97;5015009;28;20472;-50
2022/02/21 09:37:12;;;;;;;0.30;0.20;;;;;;;8.23;75.24;99145.09;5032832;28;20479;-50
2022/02/21 09:39:38;;;;;;;0.30;0.20;;;;;;;8.48;75.88;99136.22;5014844;28;20914;-50
2022/02/21 09:42:05;;;;;;;0.30;0.10;;;;;;;8.49;76.10;99141.44;5028028;28;20498;-50
2022/02/21 09:44:32;;;;;;;0.20;0.10;;;;;;;8.45;76.25;99145.16;5019090;28;20451;-50
2022/02/21 09:47:00;;;;;;;0.30;0.20;;;;;;;8.14;76.15;99142.78;5046324;28;20812;-50
2022/02/21 09:49:29;;;;;;;0.30;0.20;;;;;;;8.32;78.51;99146.50;5023634;28;20533;-50
2022/02/21 09:51:55;;;;;;;0.30;0.20;;;;;;;8.32;76.80;99150.00;5025444;28;20505;-50
2022/02/21 09:54:24;;;;;;;0.30;0.10;;;;;;;8.33;77.59;99140.28;5023575;28;21028;-50
2022/02/21 09:56:51;;;;;;;0.53;0.53;;;;;;;8.28;77.32;99144.91;5018613;28;20802;-50
2022/02/21 09:59:18;;;;;;;0.20;0.20;;;;;;;8.56;77.04;99142.09;5024664;28;20475;-50
2022/02/21 10:01:45;;;;;;;0.30;0.13;;;;;;;8.64;76.36;99139.16;5017377;28;20520;-49
2022/02/21 10:04:20;;;;;;;0.30;0.20;;;;;;;8.75;75.67;99147.53;5024239;28;20456;-50
2022/02/21 10:06:52;;;;;;;0.30;0.20;;;;;;;8.67;74.67;99144.34;5032732;28;20448;-49
2022/02/21 10:09:23;;;;;;;0.30;0.20;;;;;;;8.64;73.83;99152.41;5022284;28;20469;-50
2022/02/21 10:11:51;;;;;;;0.77;0.77;;;;;;;8.77;75.15;99150.97;5021236;28;20444;-49
2022/02/21 10:14:20;;;;;;;0.30;0.20;;;;;;;8.87;73.68;99147.03;5020797;28;20488;-49
2022/02/21 10:16:49;;;;;;;0.30;0.20;;;;;;;8.71;72.67;99138.84;5021650;28;20456;-49
2022/02/21 10:19:18;;;;;;;0.30;0.10;;;;;;;8.63;73.83;99145.34;5019451;28;20903;-49
2022/02/21 10:21:59;;;;;;;0.30;0.20;;;;;;;8.97;73.66;99145.75;5022302;28;20840;-50
2022/02/21 10:24:50;;;;;;;0.30;0.20;;;;;;;9.12;72.66;99139.81;5017025;28;20498;-49
2022/02/21 10:27:30;;;;;;;0.30;0.20;;;;;;;9.17;73.02;99148.44;5026662;28;20448;-49
2022/02/21 10:30:04;;;;;;;0.30;0.20;;;;;;;9.00;71.28;99145.63;5013903;28;20809;-50
2022/02/21 10:32:51;;;;;;;0.30;0.20;;;;;;;9.23;71.37;99151.78;5026876;28;20455;-50
2022/02/21 10:35:26;;;;;;;0.30;0.10;;;;;;;9.06;70.01;99149.84;5018452;28;20456;-49
2022/02/21 10:37:58;;;;;;;0.30;0.20;;;;;;;9.18;70.13;99151.94;5013690;28;20878;-50
2022/02/21 10:40:30;;;;;;;0.30;0.17;;;;;;;9.11;70.02;99153.16;5015544;28;20538;-50
2022/02/21 10:43:14;;;;;;;0.30;0.20;;;;;;;9.50;69.79;99142.66;5024225;28;20941;-50
2022/02/21 10:45:43;;;;;;;0.30;0.20;;;;;;;9.47;69.84;99141.00;5030757;28;20445;-50
2022/02/21 10:48:16;;;;;;;0.30;0.20;;;;;;;9.48;68.93;99140.09;5030048;28;20940;-50
2022/02/21 10:50:58;;;;;;;0.30;0.20;;;;;;;9.63;68.64;99125.28;5026452;28;20495;-50
2022/02/21 10:53:36;;;;;;;0.30;0.17;;;;;;;9.59;68.47;99128.13;5026273;28;20459;-50
2022/02/21 10:56:03;;;;;;;0.30;0.20;;;;;;;9.31;68.62;99115.19;5012115;28;20519;-50
2022/02/21 10:58:31;;;;;;;0.30;0.20;;;;;;;9.27;69.67;99125.06;5026323;28;20550;-50
2022/02/21 11:00:58;;;;;;;0.30;0.20;;;;;;;9.60;70.46;99120.13;5013028;28;20499;-50
2022/02/21 11:03:28;;;;;;;0.30;0.20;;;;;;;9.62;75.95;99114.75;5026449;28;20834;-49
2022/02/21 11:05:59;;;;;;;0.30;0.13;;;;;;;9.48;74.28;99120.66;5022741;28;20490;-49
2022/02/21 11:08:29;;;;;;;0.30;0.20;;;;;;;9.90;74.75;99114.41;5027919;28;20939;-49
2022/02/21 11:11:04;;;;;;;0.30;0.20;;;;;;;9.79;74.53;99110.41;5011810;28;20519;-49
2022/02/21 11:13:33;;;;;;;0.30;0.20;;;;;;;10.01;74.15;99117.44;5019838;28;20933;-49
2022/02/21 11:16:01;;;;;;;0.30;0.13;;;;;;;9.96;74.40;99112.31;5018870;28;20551;-51
2022/02/21 11:18:28;;;;;;;0.30;0.10;;;;;;;10.07;73.26;99104.72;5019997;28;20896;-49
2022/02/21 11:20:55;;;;;;;0.30;0.20;;;;;;;9.69;74.49;99102.91;5018370;28;20484;-49
2022/02/21 11:23:21;;;;;;;0.30;0.20;;;;;;;9.68;74.34;99094.09;5019968;28;20452;-49
2022/02/21 11:25:56;;;;;;;0.30;0.20;;;;;;;9.57;72.36;99093.72;5018307;28;20954;-49
2022/02/21 11:29:04;;;;;;;0.30;0.20;;;;;;;9.68;72.69;99070.22;5020245;28;20505;-49
2022/02/21 11:31:38;;;;;;;0.30;0.20;;;;;;;9.73;71.85;99077.97;4948794;28;20450;-50
2022/02/21 11:34:06;;;;;;;0.30;0.10;;;;;;;9.68;72.01;99061.41;5009924;28;20444;-49
2022/02/21 11:36:34;;;;;;;0.30;0.20;;;;;;;9.65;73.11;99061.53;5027042;28;20451;-49
2022/02/21 11:39:19;;;;;;;0.30;0.20;;;;;;;9.67;71.75;99065.00;5015890;28;20534;-49
2022/02/21 11:42:07;;;;;;;0.30;0.20;;;;;;;9.72;71.43;99055.03;5026567;28;20522;-49